Time;durP1;ratioP1;P1;durP2;ratioP2;P2;SDS_P1;SDS_P2;PMS_P1;PMS_P2;Temp;Humidity;BMP_temperature;BMP_pressure;BME280_temperature;BME280_humidity;BME280_pressure;Samples;Min_cycle;Max_cycle;Signal;HPM_P1;HPM_P2
2023/03/23 00:01:36;;;;;;;6.55;3.40;;;;;;;14.57;61.49;100370.50;6247388;23;20124;-85
2023/03/23 00:04:05;;;;;;;6.38;3.75;;;;;;;14.56;61.54;100368.84;6239578;22;20019;-87
2023/03/23 00:06:32;;;;;;;7.97;4.75;;;;;;;14.52;60.39;100362.25;6215505;23;20020;-87
2023/03/23 00:09:01;;;;;;;4.93;3.47;;;;;;;14.53;61.08;100358.56;6166565;23;20004;-89
2023/03/23 00:11:31;;;;;;;5.45;3.50;;;;;;;14.57;61.36;100359.00;6165332;23;20013;-86
2023/03/23 00:14:00;;;;;;;5.45;3.35;;;;;;;14.54;58.11;100360.22;6191857;23;20029;-89
2023/03/23 00:16:42;;;;;;;4.18;2.20;;;;;;;14.53;56.77;100358.56;6191786;23;20460;-90
2023/03/23 00:19:13;;;;;;;7.18;4.20;;;;;;;14.51;60.19;100360.59;6161550;23;20019;-88
2023/03/23 00:21:46;;;;;;;5.40;3.85;;;;;;;14.41;61.25;100354.78;6189039;23;20086;-89
2023/03/23 00:24:21;;;;;;;5.57;2.88;;;;;;;14.33;59.25;100361.03;6190944;23;20435;-90
2023/03/23 00:26:48;;;;;;;6.45;4.07;;;;;;;14.03;60.21;100367.44;6214750;23;20096;-89
2023/03/23 00:29:15;;;;;;;11.10;5.20;;;;;;;13.57;61.38;100361.56;6215678;23;20119;-89
2023/03/23 00:31:46;;;;;;;11.75;4.53;;;;;;;13.20;62.21;100359.84;6216178;23;20044;-88
2023/03/23 00:34:18;;;;;;;10.98;4.97;;;;;;;13.36;62.36;100356.16;6216110;23;20013;-89
2023/03/23 00:36:48;;;;;;;8.38;4.78;;;;;;;13.26;62.68;100352.94;6164808;23;20020;-87
2023/03/23 00:39:18;;;;;;;10.25;5.60;;;;;;;13.38;63.85;100357.66;6190371;23;20020;-88
2023/03/23 00:41:47;;;;;;;9.65;5.28;;;;;;;13.37;63.36;100361.31;6192439;23;20013;-86
2023/03/23 00:44:19;;;;;;;8.55;4.75;;;;;;;13.44;62.63;100351.59;6224127;23;20009;-88
2023/03/23 00:46:56;;;;;;;11.98;5.22;;;;;;;13.31;62.68;100353.22;6175027;23;20023;-91
2023/03/23 00:49:57;;;;;;;;;;;;;;;;;;;;;
2023/03/23 00:52:46;;;;;;;12.88;5.43;;;;;;;13.19;63.01;100336.09;6199002;23;20024;-92
2023/03/23 00:56:09;;;;;;;8.85;4.95;;;;;;;13.27;63.41;100341.28;6199553;23;20056;-92
2023/03/23 01:06:43;;;;;;;10.13;5.22;;;;;;;13.44;64.39;100335.59;6199869;23;20028;-91
2023/03/23 01:16:37;;;;;;;7.78;4.53;;;;;;;12.44;68.49;100325.47;5903087;24;20026;-91
2023/03/23 01:22:43;;;;;;;6.72;4.03;;;;;;;12.72;66.76;100329.22;5822330;24;20037;-87
2023/03/23 01:25:11;;;;;;;7.90;3.75;;;;;;;12.84;64.59;100333.06;5819598;24;20072;-88
2023/03/23 01:27:37;;;;;;;6.03;3.83;;;;;;;12.41;64.80;100331.13;5918842;24;20048;-88
2023/03/23 01:30:05;;;;;;;4.65;3.30;;;;;;;12.38;64.88;100332.31;5955176;24;20085;-89
2023/03/23 01:32:31;;;;;;;4.25;3.00;;;;;;;12.27;63.92;100326.59;5955454;24;20017;-91
2023/03/23 01:34:58;;;;;;;8.25;3.10;;;;;;;12.21;64.00;100327.31;5956729;24;20028;-88
2023/03/23 01:37:26;;;;;;;4.85;3.05;;;;;;;12.03;63.99;100322.28;5955748;24;20112;-88
2023/03/23 01:39:55;;;;;;;5.05;2.70;;;;;;;12.24;63.94;100318.97;6004611;23;20015;-89
2023/03/23 01:42:23;;;;;;;7.90;4.15;;;;;;;12.08;68.83;100324.41;6042289;23;20022;-88
2023/03/23 01:44:49;;;;;;;6.15;3.72;;;;;;;12.09;66.99;100326.91;6042794;23;20029;-89
2023/03/23 01:47:20;;;;;;;5.32;3.28;;;;;;;12.00;66.84;100325.28;6067138;23;20034;-89
2023/03/23 01:49:49;;;;;;;9.88;3.60;;;;;;;11.79;67.23;100320.63;6070628;23;20292;-88
2023/03/23 01:52:26;;;;;;;5.90;3.30;;;;;;;11.74;68.01;100317.63;6066779;23;20010;-88
2023/03/23 01:54:57;;;;;;;7.95;3.08;;;;;;;12.05;64.32;100314.13;6159365;23;20013;-89
2023/03/23 01:57:29;;;;;;;8.05;2.70;;;;;;;12.03;64.37;100316.16;6159745;23;20140;-89
2023/03/23 02:00:00;;;;;;;4.95;2.70;;;;;;;12.00;64.68;100316.50;6135874;23;20012;-89
2023/03/23 02:02:45;;;;;;;5.07;3.15;;;;;;;11.93;65.12;100318.22;6186380;23;20052;-89
2023/03/23 02:05:17;;;;;;;7.22;2.63;;;;;;;11.83;63.58;100316.59;6159784;23;20089;-89
2023/03/23 02:07:46;;;;;;;6.13;2.65;;;;;;;12.01;63.04;100316.31;6159978;23;20009;-89
2023/03/23 02:10:11;;;;;;;3.55;2.22;;;;;;;11.91;63.32;100313.91;6159424;23;20001;-88
2023/03/23 02:12:37;;;;;;;5.50;2.15;;;;;;;12.07;62.74;100312.13;6135026;23;20017;-89
2023/03/23 02:15:04;;;;;;;3.92;2.20;;;;;;;12.11;61.23;100308.13;6135645;23;20017;-89
2023/03/23 02:17:48;;;;;;;4.88;2.30;;;;;;;11.74;62.37;100317.63;6159262;23;20029;-90
2023/03/23 02:20:33;;;;;;;7.30;3.58;;;;;;;11.67;63.78;100310.50;6184315;23;20017;-88
2023/03/23 02:23:08;;;;;;;5.43;2.30;;;;;;;11.65;63.92;100308.03;6186308;23;20499;-89
2023/03/23 02:25:59;;;;;;;3.38;2.35;;;;;;;11.73;62.10;100310.66;6184913;23;20013;-89
2023/03/23 02:28:42;;;;;;;3.50;1.90;;;;;;;11.91;60.64;100302.44;6159467;23;20076;-90
2023/03/23 02:31:43;;;;;;;5.38;2.00;;;;;;;12.22;58.81;100307.72;6160410;23;20009;-89
2023/03/23 02:34:22;;;;;;;4.95;2.80;;;;;;;12.32;59.85;100305.63;6102242;23;20020;-90
2023/03/23 02:36:56;;;;;;;4.18;2.20;;;;;;;12.36;57.31;100312.25;6160071;23;20009;-90
2023/03/23 02:39:51;;;;;;;3.50;2.33;;;;;;;12.60;56.53;100320.00;6159795;23;20013;-90
2023/03/23 02:42:23;;;;;;;2.45;2.03;;;;;;;12.59;56.22;100306.91;6160223;23;20484;-91
2023/03/23 02:44:52;;;;;;;3.72;1.98;;;;;;;12.50;56.33;100308.78;6159598;23;20028;-91
2023/03/23 02:47:22;;;;;;;3.42;2.28;;;;;;;12.65;56.61;100306.19;6135582;23;20075;-90
2023/03/23 02:49:51;;;;;;;4.28;2.30;;;;;;;12.27;58.30;100307.97;6159514;23;20039;-88
2023/03/23 02:52:21;;;;;;;3.70;2.42;;;;;;;12.13;60.43;100301.63;6159521;23;20017;-88
2023/03/23 02:54:50;;;;;;;5.78;2.88;;;;;;;11.91;60.71;100315.72;6159176;23;20087;-87
2023/03/23 02:57:17;;;;;;;7.05;3.10;;;;;;;11.93;60.79;100316.38;6159524;23;20348;-88
2023/03/23 02:59:44;;;;;;;9.50;2.85;;;;;;;11.86;61.61;100312.78;6159334;23;20012;-90
2023/03/23 03:02:19;;;;;;;6.80;3.38;;;;;;;11.79;62.74;100309.16;6159702;23;20020;-90
2023/03/23 03:05:12;;;;;;;6.90;3.85;;;;;;;11.81;61.83;100315.94;6159501;23;20120;-88
2023/03/23 03:07:58;;;;;;;7.63;3.88;;;;;;;11.93;61.81;100311.88;6187302;23;20016;-88
2023/03/23 03:10:27;;;;;;;8.95;3.92;;;;;;;11.83;62.61;100319.25;6165775;23;20020;-88
2023/03/23 03:13:02;;;;;;;11.45;4.35;;;;;;;12.05;61.67;100314.13;6195024;23;20001;-88
2023/03/23 03:16:05;;;;;;;14.82;4.57;;;;;;;12.18;61.95;100319.69;6185019;23;20041;-87
2023/03/23 03:18:42;;;;;;;12.85;5.30;;;;;;;12.17;64.47;100326.81;6152580;23;20017;-90
2023/03/23 03:21:12;;;;;;;10.07;5.10;;;;;;;12.05;64.63;100322.09;6135103;23;20424;-89
2023/03/23 03:23:42;;;;;;;11.32;6.03;;;;;;;12.09;63.78;100318.94;6159930;23;20448;-89
2023/03/23 03:26:11;;;;;;;13.45;6.43;;;;;;;12.07;64.19;100317.44;6186126;23;20092;-89
2023/03/23 03:28:48;;;;;;;14.32;6.93;;;;;;;12.30;62.59;100318.25;6184583;23;20035;-87
2023/03/23 03:31:19;;;;;;;10.35;6.32;;;;;;;12.40;62.63;100321.50;6160294;23;20009;-89
2023/03/23 03:33:46;;;;;;;12.80;6.93;;;;;;;12.53;61.90;100324.38;6187064;23;20044;-88
2023/03/23 03:36:18;;;;;;;17.40;8.07;;;;;;;12.29;63.67;100321.94;6183955;23;20008;-88
2023/03/23 03:38:49;;;;;;;14.38;7.50;;;;;;;11.91;64.23;100319.22;6135459;23;20017;-88
2023/03/23 03:41:15;;;;;;;15.82;6.93;;;;;;;12.05;64.01;100319.44;6161549;23;20104;-88
2023/03/23 03:43:41;;;;;;;15.48;7.43;;;;;;;12.07;65.00;100320.09;6186437;23;20091;-91
2023/03/23 03:46:06;;;;;;;13.20;6.20;;;;;;;12.26;63.52;100316.97;6185654;23;20024;-89
2023/03/23 03:48:33;;;;;;;18.20;6.57;;;;;;;12.01;63.62;100326.13;6187163;23;20005;-90
2023/03/23 03:51:03;;;;;;;13.38;6.35;;;;;;;11.70;66.05;100326.94;6163036;23;20482;-90
2023/03/23 03:53:31;;;;;;;;;;;;;;;11.58;66.75;100320.34;6165946;23;20021;-89
2023/03/23 03:55:59;;;;;;;14.43;5.88;;;;;;;11.75;66.02;100324.63;6136967;23;19923;-90
2023/03/23 03:58:31;;;;;;;12.85;6.85;;;;;;;11.62;67.42;100324.31;6160556;23;20045;-91
2023/03/23 04:01:25;;;;;;;13.00;6.50;;;;;;;11.67;68.41;100321.13;6161269;23;20013;-90
2023/03/23 04:03:51;;;;;;;12.45;6.88;;;;;;;11.69;68.28;100335.91;6188428;23;20009;-91
2023/03/23 04:06:32;;;;;;;12.52;6.93;;;;;;;11.78;68.50;100328.75;6162036;23;20013;-90
2023/03/23 04:08:58;;;;;;;11.52;6.72;;;;;;;11.88;67.65;100324.88;6186423;23;20017;-90
2023/03/23 04:11:26;;;;;;;15.38;7.30;;;;;;;11.75;69.36;100334.41;6188501;23;20009;-90
2023/03/23 04:13:53;;;;;;;11.88;5.95;;;;;;;11.56;70.16;100325.03;6162381;23;20079;-89
2023/03/23 04:16:21;;;;;;;14.10;6.07;;;;;;;11.31;72.79;100331.41;6138342;23;20097;-90
2023/03/23 04:18:55;;;;;;;9.63;4.22;;;;;;;10.92;73.85;100341.97;6190770;23;20060;-91
2023/03/23 04:21:28;;;;;;;10.07;4.72;;;;;;;10.79;75.42;100341.66;6162500;23;20452;-89
2023/03/23 04:24:00;;;;;;;8.73;5.40;;;;;;;11.07;73.76;100344.75;6138306;23;20009;-89
2023/03/23 04:26:30;;;;;;;10.20;5.00;;;;;;;11.05;72.73;100344.09;6161999;23;20138;-89
2023/03/23 04:29:02;;;;;;;8.98;4.38;;;;;;;11.09;72.40;100340.09;6145008;23;20013;-89
2023/03/23 04:31:28;;;;;;;11.40;4.40;;;;;;;10.95;74.59;100346.09;6199408;23;20055;-89
2023/03/23 04:34:03;;;;;;;9.30;5.10;;;;;;;10.98;74.13;100348.41;6174540;23;20017;-90
2023/03/23 04:36:35;;;;;;;13.70;5.38;;;;;;;10.88;75.66;100352.06;6162441;23;20032;-89
2023/03/23 04:39:09;;;;;;;11.50;5.20;;;;;;;10.51;76.96;100353.59;6162835;23;20019;-88
2023/03/23 04:41:40;;;;;;;11.82;5.18;;;;;;;10.32;78.37;100360.03;6162877;23;20013;-90
2023/03/23 04:44:24;;;;;;;8.88;5.15;;;;;;;10.32;79.84;100354.75;6165409;23;20033;-89
2023/03/23 04:47:17;;;;;;;12.77;5.45;;;;;;;10.53;77.76;100363.03;6178771;23;19997;-89
2023/03/23 04:49:50;;;;;;;8.77;5.13;;;;;;;10.33;77.90;100359.91;6179152;23;20017;-90
2023/03/23 04:52:28;;;;;;;14.38;6.10;;;;;;;10.17;79.23;100372.28;6163599;23;20013;-88
2023/03/23 04:54:56;;;;;;;11.88;5.50;;;;;;;10.16;79.17;100373.28;6161408;23;20440;-90
2023/03/23 04:57:23;;;;;;;12.00;5.78;;;;;;;10.20;79.99;100371.97;6161630;23;20005;-88
2023/03/23 05:00:11;;;;;;;11.63;5.82;;;;;;;10.27;80.81;100373.78;6166681;23;20017;-88
2023/03/23 05:02:41;;;;;;;;;;;;;;;10.28;79.57;100371.94;6162826;23;20016;-90
2023/03/23 05:05:07;;;;;;;14.55;5.40;;;;;;;10.42;77.99;100375.78;6188274;23;19908;-88
2023/03/23 05:07:33;;;;;;;16.55;5.20;;;;;;;10.63;78.32;100368.19;6162241;23;20425;-88
2023/03/23 05:09:59;;;;;;;8.68;5.50;;;;;;;10.51;79.17;100365.00;6189494;23;20014;-88
2023/03/23 05:12:29;;;;;;;16.00;5.30;;;;;;;10.72;77.41;100368.00;6159392;23;20013;-89
2023/03/23 05:15:01;;;;;;;16.75;4.90;;;;;;;10.82;76.71;100373.97;6144281;23;20009;-90
2023/03/23 05:17:29;;;;;;;12.23;5.45;;;;;;;10.64;78.04;100378.59;6163098;23;20495;-89
2023/03/23 05:19:57;;;;;;;14.00;5.30;;;;;;;10.49;79.72;100371.47;6163546;23;20063;-90
2023/03/23 05:22:44;;;;;;;13.35;5.22;;;;;;;10.44;79.50;100377.25;6124173;23;20044;-90
2023/03/23 05:25:26;;;;;;;;;;;;;;;10.46;80.53;100377.09;6164804;23;20107;-89
2023/03/23 05:28:03;;;;;;;11.45;4.75;;;;;;;10.47;80.13;100365.53;6145315;23;20243;-90
2023/03/23 05:30:55;;;;;;;9.88;5.10;;;;;;;10.41;81.80;100379.44;6149151;23;20041;-90
2023/03/23 05:33:22;;;;;;;9.82;5.65;;;;;;;10.10;82.99;100381.84;6193917;23;20024;-89
2023/03/23 05:36:10;;;;;;;11.40;5.82;;;;;;;10.22;83.06;100385.84;6201261;23;20043;-88
2023/03/23 05:38:54;;;;;;;10.52;5.75;;;;;;;10.31;82.19;100384.88;6200277;23;20043;-90
2023/03/23 05:41:22;;;;;;;15.25;6.50;;;;;;;10.47;81.52;100387.56;6170322;23;20013;-89
2023/03/23 05:43:49;;;;;;;13.88;6.57;;;;;;;10.81;78.61;100392.66;6147381;23;20407;-89
2023/03/23 05:46:37;;;;;;;12.73;6.63;;;;;;;10.53;79.95;100394.00;6191060;23;20004;-86
2023/03/23 05:49:03;;;;;;;15.13;6.40;;;;;;;10.62;80.33;100393.84;6140990;23;20451;-84
2023/03/23 05:51:35;;;;;;;12.50;6.32;;;;;;;10.87;78.19;100403.44;6161123;23;20020;-86
2023/03/23 05:54:01;;;;;;;14.32;6.55;;;;;;;10.51;80.71;100407.41;6137059;23;20465;-88
2023/03/23 05:56:30;;;;;;;19.40;6.72;;;;;;;10.26;83.52;100406.56;6185795;23;20017;-87
2023/03/23 05:59:16;;;;;;;13.23;5.82;;;;;;;10.17;84.56;100410.19;6186165;23;20413;-86
2023/03/23 06:01:44;;;;;;;16.52;5.68;;;;;;;10.77;80.87;100408.09;6160672;23;20009;-83
2023/03/23 06:04:11;;;;;;;13.00;5.80;;;;;;;11.24;77.97;100416.16;6138322;23;20015;-88
2023/03/23 06:06:43;;;;;;;12.32;6.07;;;;;;;11.21;77.79;100410.34;6164583;23;20522;-88
2023/03/23 06:09:10;;;;;;;11.68;5.85;;;;;;;11.91;74.86;100420.13;6162951;23;20016;-88
2023/03/23 06:12:04;;;;;;;19.75;6.25;;;;;;;12.25;72.23;100418.94;6191389;23;20017;-87
2023/03/23 06:14:37;;;;;;;14.40;6.35;;;;;;;11.72;75.66;100425.03;6163530;23;20005;-88
2023/03/23 06:17:41;;;;;;;17.25;6.90;;;;;;;11.43;77.50;100425.59;6199798;23;20006;-84
2023/03/23 06:20:09;;;;;;;21.20;7.57;;;;;;;10.95;81.99;100423.00;6182132;23;20080;-85
2023/03/23 06:22:39;;;;;;;20.40;8.00;;;;;;;10.84;83.52;100424.97;6209680;23;20012;-85
2023/03/23 06:25:28;;;;;;;17.77;7.13;;;;;;;11.24;81.25;100420.63;6187211;23;20040;-87
2023/03/23 06:27:54;;;;;;;20.13;6.68;;;;;;;11.93;79.01;100424.44;6193914;23;20013;-86
2023/03/23 06:30:20;;;;;;;14.00;6.20;;;;;;;11.99;76.95;100421.09;6142082;23;20067;-84
2023/03/23 06:32:47;;;;;;;18.33;6.70;;;;;;;11.71;78.81;100423.34;6163864;23;20017;-86
2023/03/23 06:35:14;;;;;;;23.45;7.03;;;;;;;12.22;76.98;100428.09;6135943;23;20013;-85
2023/03/23 06:38:01;;;;;;;19.75;7.03;;;;;;;12.29;77.75;100421.09;6189449;23;20086;-85
2023/03/23 06:40:39;;;;;;;20.25;6.80;;;;;;;12.64;75.97;100426.81;6163539;23;20009;-83
2023/03/23 06:43:09;;;;;;;25.40;7.90;;;;;;;13.52;68.65;100427.88;6137303;23;20088;-85
2023/03/23 06:45:52;;;;;;;18.35;7.55;;;;;;;13.36;69.36;100431.53;6142615;23;20152;-88
2023/03/23 06:48:50;;;;;;;16.85;6.93;;;;;;;12.66;74.04;100440.78;6140218;23;20352;-89
2023/03/23 06:51:19;;;;;;;27.52;7.72;;;;;;;12.52;75.80;100439.72;6160069;23;20375;-87
2023/03/23 06:53:48;;;;;;;18.73;7.80;;;;;;;12.48;76.40;100438.41;6158859;23;20436;-87
2023/03/23 06:56:23;;;;;;;18.25;7.80;;;;;;;12.46;76.15;100440.41;6159341;23;20013;-90
2023/03/23 06:58:49;;;;;;;19.67;7.80;;;;;;;12.60;76.76;100436.16;6134452;23;20036;-87
2023/03/23 07:01:16;;;;;;;15.20;7.43;;;;;;;12.88;76.10;100430.13;6160391;23;20411;-87
2023/03/23 07:03:50;;;;;;;16.27;7.45;;;;;;;13.43;74.88;100428.97;6159745;23;20005;-86
2023/03/23 07:06:23;;;;;;;18.20;7.88;;;;;;;13.48;73.83;100431.91;6157964;23;20392;-88
2023/03/23 07:08:58;;;;;;;15.77;7.90;;;;;;;14.09;71.88;100435.16;6159237;23;20013;-83
2023/03/23 07:11:27;;;;;;;26.83;8.43;;;;;;;14.58;68.45;100428.19;6155419;23;20107;-83
2023/03/23 07:13:52;;;;;;;19.38;8.82;;;;;;;14.26;68.49;100425.94;6157948;23;20020;-83
2023/03/23 07:16:18;;;;;;;16.48;8.40;;;;;;;14.62;68.52;100429.41;6159372;23;20016;-88
2023/03/23 07:18:44;;;;;;;19.20;8.50;;;;;;;15.07;65.87;100435.38;6158055;23;20024;-86
2023/03/23 07:21:11;;;;;;;17.77;8.82;;;;;;;15.38;64.25;100443.81;6186772;23;20052;-89
2023/03/23 07:23:41;;;;;;;22.63;9.80;;;;;;;15.25;65.07;100438.38;6165010;23;20021;-87
2023/03/23 07:26:14;;;;;;;31.42;9.00;;;;;;;15.64;64.21;100441.38;6161780;23;20405;-88
2023/03/23 07:28:47;;;;;;;22.50;9.35;;;;;;;16.33;61.94;100435.91;6160418;23;20140;-83
2023/03/23 07:31:21;;;;;;;20.50;9.70;;;;;;;16.87;61.11;100436.63;6135172;23;20112;-85
2023/03/23 07:33:51;;;;;;;23.95;8.40;;;;;;;17.43;58.40;100431.66;6160139;23;20124;-84
2023/03/23 07:36:17;;;;;;;19.00;9.90;;;;;;;18.41;50.46;100440.44;6159645;23;20009;-85
2023/03/23 07:38:43;;;;;;;18.52;9.70;;;;;;;19.13;46.17;100447.19;6186091;23;20079;-88
2023/03/23 07:41:09;;;;;;;17.77;10.10;;;;;;;19.64;45.51;100447.78;6160258;23;20017;-86
2023/03/23 07:43:37;;;;;;;18.73;9.88;;;;;;;19.65;44.02;100454.81;6160265;23;20037;-86
2023/03/23 07:46:09;;;;;;;17.95;8.95;;;;;;;19.50;44.14;100448.94;6189831;23;20017;-88
2023/03/23 07:48:48;;;;;;;14.55;8.77;;;;;;;19.00;44.90;100451.63;6160909;23;20005;-88
2023/03/23 07:51:16;;;;;;;14.02;8.07;;;;;;;18.65;46.87;100447.75;6162323;23;20009;-86
2023/03/23 07:53:44;;;;;;;14.73;8.30;;;;;;;19.33;45.35;100451.34;6137692;23;20029;-84
2023/03/23 07:56:35;;;;;;;14.50;8.18;;;;;;;19.42;45.74;100446.56;6162487;23;20433;-84
2023/03/23 07:59:13;;;;;;;13.05;7.88;;;;;;;19.02;46.91;100449.53;6157992;23;20345;-84
2023/03/23 08:01:41;;;;;;;12.77;8.85;;;;;;;19.15;46.31;100450.50;6183322;23;20045;-85
2023/03/23 08:04:27;;;;;;;17.98;10.18;;;;;;;18.75;47.19;100441.91;6178311;23;20507;-84
2023/03/23 08:07:16;;;;;;;16.45;9.90;;;;;;;18.56;48.64;100444.50;6193740;23;20032;-89
2023/03/23 08:09:50;;;;;;;16.35;8.98;;;;;;;18.34;49.88;100443.16;6194666;23;20056;-88
2023/03/23 08:12:35;;;;;;;12.98;9.00;;;;;;;18.17;50.86;100457.25;6165706;23;20075;-87
2023/03/23 08:15:21;;;;;;;12.93;9.05;;;;;;;17.81;52.37;100452.44;6188105;23;20431;-87
2023/03/23 08:18:10;;;;;;;15.70;9.77;;;;;;;18.15;52.13;100456.66;6153157;23;20017;-87
2023/03/23 08:20:54;;;;;;;16.77;9.60;;;;;;;18.11;51.71;100463.47;6187033;23;20091;-86
2023/03/23 08:23:31;;;;;;;23.38;9.30;;;;;;;17.87;53.51;100456.94;6159986;23;20428;-88
2023/03/23 08:26:09;;;;;;;16.52;10.18;;;;;;;18.01;52.99;100466.63;6188803;23;20024;-87
2023/03/23 08:29:11;;;;;;;19.85;11.65;;;;;;;18.34;51.75;100469.16;6090379;23;20025;-84
2023/03/23 08:31:57;;;;;;;18.83;10.57;;;;;;;18.35;52.52;100457.41;6177347;23;20017;-86
2023/03/23 08:34:42;;;;;;;16.40;10.90;;;;;;;18.59;52.27;100464.75;6185397;23;20464;-88
2023/03/23 08:37:21;;;;;;;19.67;10.52;;;;;;;18.60;52.84;100469.03;6159500;23;20013;-88
2023/03/23 08:39:59;;;;;;;24.58;10.10;;;;;;;18.88;52.23;100477.56;6159620;23;20083;-90
2023/03/23 08:42:52;;;;;;;17.38;9.70;;;;;;;18.76;51.61;100475.78;6157124;23;20032;-87
2023/03/23 08:45:30;;;;;;;15.93;10.00;;;;;;;18.60;51.63;100474.41;6185683;23;20044;-88
2023/03/23 08:47:56;;;;;;;16.13;9.18;;;;;;;18.91;50.84;100474.44;6186108;23;20017;-88
2023/03/23 08:50:42;;;;;;;22.20;9.50;;;;;;;18.79;52.07;100473.47;6185400;23;20017;-87
2023/03/23 08:53:11;;;;;;;18.25;9.60;;;;;;;19.17;51.37;100483.31;6187805;23;20399;-89
2023/03/23 08:55:45;;;;;;;14.93;9.82;;;;;;;19.76;49.82;100478.25;6160533;23;20139;-86
2023/03/23 08:58:22;;;;;;;15.52;9.05;;;;;;;19.91;48.82;100478.72;6184398;23;20013;-86
2023/03/23 09:01:20;;;;;;;18.30;9.65;;;;;;;20.09;47.55;100489.47;6170928;23;20348;-86
2023/03/23 09:04:00;;;;;;;14.25;9.43;;;;;;;20.44;46.38;100491.56;6186571;23;20017;-88
2023/03/23 09:06:44;;;;;;;17.30;9.75;;;;;;;19.59;50.13;100488.78;6160378;23;20012;-89
2023/03/23 09:09:09;;;;;;;25.25;10.50;;;;;;;19.55;51.94;100486.75;6188126;23;20129;-88
2023/03/23 09:11:36;;;;;;;17.75;9.68;;;;;;;19.18;51.95;100484.97;6160738;23;20388;-88
2023/03/23 09:14:04;;;;;;;15.77;10.07;;;;;;;18.76;54.14;100497.28;6161364;23;20408;-88
2023/03/23 09:16:29;;;;;;;19.38;9.75;;;;;;;18.62;54.84;100491.16;6162765;23;20017;-91
2023/03/23 09:18:56;;;;;;;18.60;9.57;;;;;;;19.13;53.25;100498.22;6189972;23;20020;-85
2023/03/23 09:21:24;;;;;;;15.27;8.45;;;;;;;20.47;49.74;100505.41;6188875;23;20008;-86
2023/03/23 09:23:51;;;;;;;15.77;9.38;;;;;;;21.16;47.28;100505.91;6160895;23;20048;-86
2023/03/23 09:32:15;;;;;;;12.25;9.05;;;;;;;20.03;50.82;100503.84;6254954;22;20064;-80
2023/03/23 09:38:12;;;;;;;17.45;9.98;;;;;;;19.88;52.46;100513.31;6269659;22;20031;-79
2023/03/23 09:42:01;;;;;;;16.25;10.27;;;;;;;19.60;53.22;100513.78;6198456;23;20008;-81
2023/03/23 09:46:10;;;;;;;18.17;10.38;;;;;;;19.64;53.30;100515.00;6152070;23;20045;-84
2023/03/23 09:50:03;;;;;;;27.52;11.95;;;;;;;20.44;50.87;100518.50;6065158;23;20026;-81
2023/03/23 09:54:01;;;;;;;19.25;10.75;;;;;;;20.04;51.78;100505.50;6061115;23;20019;-81
2023/03/23 10:05:20;;;;;;;16.58;9.80;;;;;;;21.94;45.34;100511.84;6193204;23;20439;-89
2023/03/23 10:07:46;;;;;;;23.58;9.85;;;;;;;22.30;44.83;100505.31;6190252;23;20017;-87
2023/03/23 10:10:14;;;;;;;20.33;9.30;;;;;;;23.31;41.14;100523.41;6191023;23;20044;-90
2023/03/23 10:13:09;;;;;;;15.25;8.82;;;;;;;22.63;42.06;100513.53;6190495;23;20009;-86
2023/03/23 10:15:42;;;;;;;15.55;8.55;;;;;;;23.35;41.00;100516.47;6160561;23;20021;-87
2023/03/23 10:18:32;;;;;;;17.65;9.55;;;;;;;23.41;39.37;100507.38;6187263;23;20449;-87
2023/03/23 10:21:03;;;;;;;18.85;8.63;;;;;;;23.77;39.27;100520.38;6189067;23;20020;-89
2023/03/23 10:23:59;;;;;;;16.27;9.10;;;;;;;24.16;38.16;100524.75;6164495;23;20013;-89
2023/03/23 10:26:32;;;;;;;14.70;8.48;;;;;;;23.76;38.11;100513.34;6190380;23;20032;-89
2023/03/23 10:29:18;;;;;;;19.42;8.30;;;;;;;23.35;39.04;100508.34;6191591;23;20066;-88
2023/03/23 10:32:01;;;;;;;18.50;8.73;;;;;;;23.13;38.37;100503.66;6192766;23;20024;-89
2023/03/23 10:34:44;;;;;;;15.43;7.72;;;;;;;22.87;38.33;100503.47;6191153;23;20004;-86
2023/03/23 10:37:14;;;;;;;13.30;6.00;;;;;;;22.81;35.49;100504.44;6165425;23;20425;-89
2023/03/23 10:40:03;;;;;;;9.90;6.60;;;;;;;23.19;36.91;100496.47;6167018;23;20012;-89
2023/03/23 10:42:38;;;;;;;19.55;10.02;;;;;;;23.02;40.17;100493.75;6165790;23;20040;-94
2023/03/23 10:45:17;;;;;;;15.15;9.05;;;;;;;24.22;37.59;100500.47;6169944;23;20013;-89
2023/03/23 10:48:09;;;;;;;17.83;8.82;;;;;;;24.13;35.45;100500.88;6189103;23;20028;-89
2023/03/23 10:50:37;;;;;;;15.18;9.15;;;;;;;23.55;37.02;100489.75;6162093;23;20028;-88
2023/03/23 10:53:15;;;;;;;19.52;9.57;;;;;;;24.10;36.09;100487.00;6167951;23;20045;-90
2023/03/23 10:55:47;;;;;;;13.52;8.52;;;;;;;23.58;37.14;100481.16;6196167;23;20475;-90
2023/03/23 10:58:24;;;;;;;18.83;9.20;;;;;;;23.39;37.13;100475.16;6200387;23;20507;-90
2023/03/23 11:00:54;;;;;;;27.73;8.77;;;;;;;22.17;39.55;100476.72;6174593;23;20020;-91
2023/03/23 11:03:49;;;;;;;24.40;9.75;;;;;;;21.55;40.87;100473.69;6193318;23;20016;-89
2023/03/23 11:06:32;;;;;;;17.67;9.18;;;;;;;21.59;41.36;100468.66;6196270;23;20005;-89
2023/03/23 11:14:39;;;;;;;15.40;9.18;;;;;;;20.22;45.16;100458.09;6200930;23;20009;-93
2023/03/23 11:17:41;;;;;;;19.52;10.48;;;;;;;19.98;46.06;100455.28;6181040;23;20032;-92
2023/03/23 11:20:13;;;;;;;15.85;9.57;;;;;;;20.00;46.76;100455.84;6064021;23;20018;-92
2023/03/23 11:22:44;;;;;;;20.02;11.23;;;;;;;20.57;45.86;100448.31;6086192;23;20402;-91
2023/03/23 11:25:21;;;;;;;16.67;10.18;;;;;;;22.15;42.18;100449.13;6060211;23;20030;-92
2023/03/23 11:33:19;;;;;;;16.70;8.83;;;;;;;25.48;35.12;100466.47;6230914;22;20008;-94
2023/03/23 11:35:56;;;;;;;15.88;8.27;;;;;;;26.65;32.19;100471.38;6196987;23;20468;-88
2023/03/23 11:38:25;;;;;;;23.05;8.70;;;;;;;27.43;30.52;100478.25;6220206;23;20420;-89
2023/03/23 11:40:52;;;;;;;19.08;9.95;;;;;;;26.63;31.75;100473.56;6224292;23;20042;-90
2023/03/23 11:43:26;;;;;;;15.15;8.80;;;;;;;26.09;32.96;100471.19;6231471;23;20092;-93
2023/03/23 11:46:20;;;;;;;15.77;9.20;;;;;;;26.20;32.54;100458.47;6181399;23;20065;-89
2023/03/23 11:49:03;;;;;;;16.33;9.10;;;;;;;25.99;32.62;100465.69;6242682;23;20035;-89
2023/03/23 11:51:42;;;;;;;11.50;7.75;;;;;;;26.29;31.65;100466.94;6251689;23;20012;-89
2023/03/23 11:54:20;;;;;;;12.45;8.43;;;;;;;26.52;31.05;100469.16;6202726;23;20019;-91
2023/03/23 11:56:47;;;;;;;13.95;7.47;;;;;;;26.28;31.16;100463.41;6198315;23;20020;-91
2023/03/23 11:59:17;;;;;;;17.20;8.02;;;;;;;26.97;29.70;100452.97;6225098;23;20012;-91
2023/03/23 12:02:24;;;;;;;14.27;7.65;;;;;;;25.63;32.15;100458.44;6252112;23;20012;-89
2023/03/23 12:05:10;;;;;;;13.65;8.60;;;;;;;24.45;34.50;100438.72;6223916;23;20094;-89
2023/03/23 12:08:03;;;;;;;15.88;8.60;;;;;;;23.10;36.74;100438.47;6201137;23;20012;-92
2023/03/23 12:10:57;;;;;;;19.05;9.25;;;;;;;22.35;39.61;100440.59;6223793;23;20011;-90
2023/03/23 12:13:55;;;;;;;16.13;9.82;;;;;;;22.25;40.33;100438.53;6248611;23;20298;-91
2023/03/23 12:16:45;;;;;;;15.98;8.52;;;;;;;21.82;41.42;100435.44;6250772;23;20094;-89
2023/03/23 12:19:36;;;;;;;15.77;9.25;;;;;;;21.73;41.82;100429.59;6254022;23;20012;-90
2023/03/23 12:22:36;;;;;;;15.85;9.45;;;;;;;21.31;43.10;100428.09;6251723;23;20443;-90
2023/03/23 12:25:20;;;;;;;18.55;9.77;;;;;;;20.74;43.98;100417.00;6194881;23;20023;-88
2023/03/23 12:28:10;;;;;;;19.55;9.35;;;;;;;20.54;44.73;100403.81;6221983;23;20115;-89
2023/03/23 12:30:45;;;;;;;14.80;9.07;;;;;;;20.39;45.37;100403.41;6218422;23;20008;-86
2023/03/23 12:33:17;;;;;;;17.60;8.55;;;;;;;20.24;45.49;100399.47;6250820;23;20091;-86
2023/03/23 12:36:07;;;;;;;16.60;7.80;;;;;;;19.90;45.71;100388.31;6218668;23;20055;-85
2023/03/23 12:39:24;;;;;;;14.85;8.35;;;;;;;20.01;44.90;100387.56;6236010;23;20494;-83
2023/03/23 12:42:18;;;;;;;17.08;9.13;;;;;;;20.13;44.41;100377.66;6272002;22;20060;-81
2023/03/23 12:45:03;;;;;;;22.90;9.02;;;;;;;20.28;45.69;100374.59;6244846;23;20012;-82
2023/03/23 12:48:59;;;;;;;15.82;9.20;;;;;;;20.05;46.06;100366.41;6270253;23;20030;-82
2023/03/23 12:52:06;;;;;;;17.17;9.50;;;;;;;19.95;45.62;100368.81;6265783;23;20019;-83
2023/03/23 12:55:34;;;;;;;20.25;8.90;;;;;;;19.87;44.51;100356.50;6265270;23;20042;-83
2023/03/23 12:58:05;;;;;;;21.67;7.95;;;;;;;19.57;44.76;100361.00;6178839;23;20086;-88